Time;durP1;ratioP1;P1;durP2;ratioP2;P2;SDS_P1;SDS_P2;PMS_P1;PMS_P2;Temp;Humidity;BMP_temperature;BMP_pressure;BME280_temperature;BME280_humidity;BME280_pressure;Samples;Min_cycle;Max_cycle;Signal;HPM_P1;HPM_P2
2022/05/26 00:00:53;;;;;;;1.17;0.75;;;;;;;16.05;59.41;101147.25;4967583;28;20038;-71
2022/05/26 00:03:19;;;;;;;2.13;0.90;;;;;;;16.05;59.33;101152.59;4962433;28;20987;-71
2022/05/26 00:05:44;;;;;;;1.70;0.65;;;;;;;16.12;59.14;101142.09;4933004;28;20355;-71
2022/05/26 00:08:10;;;;;;;2.22;0.80;;;;;;;16.04;59.58;101144.75;4949102;28;20270;-71
2022/05/26 00:10:35;;;;;;;1.75;0.90;;;;;;;16.06;59.31;101151.59;4950511;28;20003;-72
2022/05/26 00:13:01;;;;;;;1.58;0.90;;;;;;;15.97;59.74;101144.56;4950844;28;20035;-73
2022/05/26 00:15:26;;;;;;;2.90;0.80;;;;;;;16.01;59.66;101145.91;4969417;28;20026;-72
2022/05/26 00:17:52;;;;;;;2.33;1.08;;;;;;;15.97;59.68;101147.22;4968205;28;20680;-70
2022/05/26 00:20:17;;;;;;;1.52;0.70;;;;;;;15.92;59.77;101136.19;4966509;28;20805;-71
2022/05/26 00:22:43;;;;;;;4.32;0.90;;;;;;;16.03;59.67;101146.56;4968676;28;20625;-71
2022/05/26 00:25:08;;;;;;;3.13;0.73;;;;;;;16.03;59.74;101138.56;4974608;28;20041;-71
2022/05/26 00:27:34;;;;;;;3.95;0.80;;;;;;;15.91;59.75;101142.53;4969248;28;20773;-71
2022/05/26 00:29:59;;;;;;;2.42;0.90;;;;;;;15.92;60.13;101142.38;4951882;28;20428;-71
2022/05/26 00:32:24;;;;;;;1.83;0.70;;;;;;;15.88;59.87;101129.53;4950338;28;20017;-71
2022/05/26 00:34:50;;;;;;;2.28;1.15;;;;;;;15.94;59.96;101134.22;4964680;28;20022;-71
2022/05/26 00:37:15;;;;;;;4.90;0.73;;;;;;;15.93;59.51;101133.38;4946328;28;20786;-72
2022/05/26 00:39:41;;;;;;;1.48;0.90;;;;;;;15.90;59.80;101140.88;4950003;28;20559;-71
2022/05/26 00:42:06;;;;;;;1.50;0.80;;;;;;;15.83;60.34;101137.19;4945595;28;20049;-71
2022/05/26 00:44:32;;;;;;;2.10;0.93;;;;;;;15.91;60.05;101137.22;4941227;28;20829;-71
2022/05/26 00:47:14;;;;;;;1.83;1.30;;;;;;;15.89;60.28;101141.84;4948294;28;20125;-72
2022/05/26 00:49:53;;;;;;;1.88;1.10;;;;;;;15.83;60.73;101129.16;4933721;28;21078;-71
2022/05/26 00:52:23;;;;;;;3.58;1.20;;;;;;;15.93;60.21;101132.53;4947430;28;20519;-71
2022/05/26 00:54:50;;;;;;;2.80;1.00;;;;;;;15.92;60.33;101136.19;4916763;28;20340;-71
2022/05/26 00:57:21;;;;;;;2.10;1.20;;;;;;;15.84;60.60;101123.66;4931870;28;20003;-71
2022/05/26 01:00:02;;;;;;;2.72;1.13;;;;;;;15.93;60.94;101124.53;4932930;28;20029;-70
2022/05/26 01:02:33;;;;;;;1.58;1.00;;;;;;;15.87;60.90;101134.00;4953271;28;20103;-72
2022/05/26 01:04:59;;;;;;;2.17;1.02;;;;;;;15.85;60.85;101132.50;4952134;28;20007;-71
2022/05/26 01:07:29;;;;;;;1.90;1.05;;;;;;;15.75;61.69;101129.94;4930604;28;20015;-72
2022/05/26 01:09:56;;;;;;;1.73;1.00;;;;;;;15.72;61.93;101127.59;4933399;28;20679;-71
2022/05/26 01:12:21;;;;;;;1.63;1.00;;;;;;;15.65;62.30;101138.06;4948858;28;20023;-72
2022/05/26 01:14:52;;;;;;;1.00;0.85;;;;;;;15.65;62.49;101135.41;4945563;28;20022;-70
2022/05/26 01:17:47;;;;;;;1.90;0.80;;;;;;;15.67;62.72;101133.41;4951402;28;20383;-71
2022/05/26 01:20:23;;;;;;;3.50;0.70;;;;;;;15.73;62.67;101139.94;4970796;28;20092;-71
2022/05/26 01:22:59;;;;;;;3.78;0.80;;;;;;;15.68;62.88;101128.91;4952235;28;20087;-71
2022/05/26 01:25:27;;;;;;;2.22;0.75;;;;;;;15.72;62.58;101136.44;4968987;28;20018;-71
2022/05/26 01:28:30;;;;;;;3.00;0.60;;;;;;;15.70;62.75;101135.75;4970661;28;20030;-71
2022/05/26 01:31:04;;;;;;;2.67;0.80;;;;;;;15.72;62.83;101139.13;4970430;28;20014;-70
2022/05/26 01:33:42;;;;;;;1.98;0.90;;;;;;;15.67;63.27;101141.41;4972264;28;20157;-71
2022/05/26 01:36:22;;;;;;;1.15;0.73;;;;;;;15.57;63.61;101138.88;4951735;28;20079;-72
2022/05/26 01:39:06;;;;;;;2.72;0.70;;;;;;;15.58;63.27;101143.22;4953687;28;20345;-71
2022/05/26 01:41:43;;;;;;;2.17;0.90;;;;;;;15.54;63.80;101141.88;4971985;28;20137;-71
2022/05/26 01:44:29;;;;;;;2.40;0.70;;;;;;;15.64;63.44;101147.09;4968920;28;20007;-71
2022/05/26 01:46:58;;;;;;;1.02;0.70;;;;;;;15.59;63.71;101149.38;4948502;28;20022;-71
2022/05/26 01:49:46;;;;;;;2.03;0.73;;;;;;;15.64;63.48;101152.41;4934294;28;20803;-70
2022/05/26 01:52:15;;;;;;;0.93;0.63;;;;;;;15.60;63.70;101145.72;4949944;28;20075;-71
2022/05/26 01:54:46;;;;;;;1.25;0.60;;;;;;;15.54;63.97;101162.34;4933035;28;20853;-72
2022/05/26 01:57:29;;;;;;;1.33;0.88;;;;;;;15.56;63.74;101144.38;4933699;28;20019;-71
2022/05/26 02:00:03;;;;;;;0.90;0.60;;;;;;;15.55;63.97;101156.03;4959547;28;20683;-71
2022/05/26 02:02:30;;;;;;;1.20;1.02;;;;;;;15.43;64.41;101148.31;4970413;28;20045;-72
2022/05/26 02:05:02;;;;;;;1.52;0.75;;;;;;;15.51;64.47;101155.53;4953365;28;20102;-71
2022/05/26 02:07:40;;;;;;;1.48;0.80;;;;;;;15.57;64.22;101149.53;4953130;28;20002;-71
2022/05/26 02:10:08;;;;;;;1.02;0.70;;;;;;;15.59;63.88;101154.72;4954756;28;20026;-71
2022/05/26 02:12:46;;;;;;;0.55;0.55;;;;;;;15.46;64.52;101160.50;4954389;28;20788;-71
2022/05/26 02:15:22;;;;;;;0.70;0.60;;;;;;;15.31;64.85;101141.56;4971361;28;20935;-71
2022/05/26 02:17:51;;;;;;;0.93;0.60;;;;;;;15.44;64.58;101155.31;4953650;28;20038;-71
2022/05/26 02:20:28;;;;;;;1.40;0.70;;;;;;;15.41;64.98;101147.66;4951428;28;20019;-70
2022/05/26 02:23:05;;;;;;;1.13;0.70;;;;;;;15.44;64.76;101152.66;4955371;28;20482;-71
2022/05/26 02:25:30;;;;;;;1.33;0.98;;;;;;;15.42;64.97;101143.97;4952192;28;20269;-71
2022/05/26 02:27:57;;;;;;;0.90;0.63;;;;;;;15.49;64.98;101156.69;4951676;28;20867;-71
2022/05/26 02:30:24;;;;;;;1.13;0.68;;;;;;;15.52;65.08;101151.84;4950833;28;20091;-71
2022/05/26 02:32:51;;;;;;;1.45;0.80;;;;;;;15.53;64.97;101156.19;4933461;28;20603;-71
2022/05/26 02:35:18;;;;;;;2.28;0.88;;;;;;;15.56;65.01;101163.03;4933234;28;20064;-71
2022/05/26 02:37:45;;;;;;;1.02;0.93;;;;;;;15.55;65.20;101164.88;4959108;28;20727;-71
2022/05/26 02:40:11;;;;;;;1.33;0.90;;;;;;;15.43;65.66;101158.97;4953335;28;20026;-71
2022/05/26 02:42:48;;;;;;;1.50;1.00;;;;;;;15.40;65.92;101159.31;4955094;28;20104;-71
2022/05/26 02:45:14;;;;;;;2.83;0.88;;;;;;;15.45;66.12;101162.34;4968372;28;20064;-71
2022/05/26 02:48:00;;;;;;;2.42;1.00;;;;;;;15.34;66.95;101159.09;4956069;28;20011;-72
2022/05/26 02:50:48;;;;;;;1.73;0.85;;;;;;;15.28;67.37;101160.56;4956065;28;21180;-71
2022/05/26 02:53:16;;;;;;;1.20;0.93;;;;;;;15.26;67.74;101163.38;4955280;28;20848;-71
2022/05/26 02:55:47;;;;;;;1.45;0.90;;;;;;;15.34;67.47;101167.09;4975375;28;20022;-71
2022/05/26 02:58:24;;;;;;;1.92;0.82;;;;;;;15.42;67.32;101173.28;4942313;28;20002;-71
2022/05/26 03:00:59;;;;;;;1.23;1.10;;;;;;;15.33;67.53;101173.41;4974411;28;20034;-70
2022/05/26 03:03:33;;;;;;;1.33;0.75;;;;;;;15.28;67.86;101166.75;4981346;28;20014;-71
2022/05/26 03:06:12;;;;;;;4.22;0.90;;;;;;;15.29;67.89;101178.22;4974879;28;20569;-71
2022/05/26 03:08:39;;;;;;;1.75;0.77;;;;;;;15.29;67.92;101170.22;4974347;28;20017;-69
2022/05/26 03:11:06;;;;;;;0.77;0.77;;;;;;;15.26;68.07;101173.22;4957151;28;20624;-71
2022/05/26 03:13:32;;;;;;;1.42;1.00;;;;;;;15.21;68.21;101175.50;4942858;28;20083;-71
2022/05/26 03:15:57;;;;;;;1.77;0.90;;;;;;;15.26;68.38;101178.56;4977300;28;20534;-71
2022/05/26 03:18:22;;;;;;;0.88;0.75;;;;;;;15.30;68.64;101169.25;4972428;28;20017;-71
2022/05/26 03:20:48;;;;;;;1.55;0.90;;;;;;;15.24;68.28;101167.19;4938508;28;20220;-72
2022/05/26 03:23:13;;;;;;;3.58;1.30;;;;;;;15.34;68.22;101175.09;4975844;28;20035;-71
2022/05/26 03:25:44;;;;;;;1.70;1.27;;;;;;;15.21;69.15;101188.84;4961758;28;20018;-72
2022/05/26 03:28:10;;;;;;;1.73;1.10;;;;;;;15.22;69.41;101185.19;4962409;28;20050;-71
2022/05/26 03:30:37;;;;;;;1.75;1.10;;;;;;;15.15;69.89;101184.16;4982926;28;19986;-72
2022/05/26 03:33:02;;;;;;;1.80;1.25;;;;;;;15.11;69.96;101189.75;4986860;28;20049;-73
2022/05/26 03:40:56;;;;;;;2.70;1.60;;;;;;;14.97;70.00;101189.50;4970890;28;20747;-72
2022/05/26 03:43:26;;;;;;;5.47;1.48;;;;;;;15.11;69.43;101194.25;4954448;28;20014;-71
2022/05/26 03:45:51;;;;;;;2.45;1.40;;;;;;;15.10;69.55;101201.44;4969781;28;20771;-71
2022/05/26 03:48:16;;;;;;;2.30;1.35;;;;;;;15.18;69.35;101194.50;4968955;28;20055;-73
2022/05/26 03:50:42;;;;;;;4.05;1.73;;;;;;;15.18;69.12;101192.66;4965445;28;20861;-71
2022/05/26 03:53:07;;;;;;;2.97;1.52;;;;;;;15.18;69.01;101202.47;4953210;28;20079;-72
2022/05/26 03:55:32;;;;;;;1.63;1.23;;;;;;;15.19;69.16;101190.84;4969512;28;20491;-72
2022/05/26 03:57:59;;;;;;;6.40;1.83;;;;;;;15.19;69.00;101196.16;4971172;28;20237;-72
2022/05/26 04:00:24;;;;;;;3.67;1.50;;;;;;;15.21;68.90;101204.84;4972287;28;20018;-71
2022/05/26 04:02:50;;;;;;;4.10;1.83;;;;;;;15.24;69.24;101201.84;4970774;28;20026;-72
2022/05/26 04:05:15;;;;;;;3.00;1.80;;;;;;;15.12;69.13;101209.28;4952580;28;20673;-71
2022/05/26 04:07:41;;;;;;;2.85;1.80;;;;;;;15.09;69.54;101215.75;4968609;28;20037;-70
2022/05/26 04:10:07;;;;;;;3.75;1.83;;;;;;;15.02;69.88;101209.38;4969675;28;20015;-71
2022/05/26 04:12:33;;;;;;;2.95;1.65;;;;;;;15.11;69.85;101218.25;4969231;28;20022;-70
2022/05/26 04:14:59;;;;;;;3.20;1.63;;;;;;;15.05;69.99;101213.56;4970099;28;20440;-71
2022/05/26 04:17:24;;;;;;;4.00;2.13;;;;;;;15.08;69.98;101214.06;4968030;28;20550;-72
2022/05/26 04:19:49;;;;;;;5.53;2.17;;;;;;;15.03;70.76;101221.72;4934010;28;20025;-73
2022/05/26 04:22:15;;;;;;;3.92;1.75;;;;;;;15.14;70.07;101222.44;4951391;28;20050;-71
2022/05/26 04:24:40;;;;;;;5.05;1.80;;;;;;;15.18;70.05;101229.16;4953907;28;20034;-71
2022/05/26 04:27:05;;;;;;;2.53;1.60;;;;;;;15.19;70.08;101225.50;4952370;28;20014;-71
2022/05/26 04:29:31;;;;;;;4.30;2.13;;;;;;;15.10;70.34;101230.75;4939446;28;20088;-71
2022/05/26 04:31:57;;;;;;;3.42;2.08;;;;;;;15.20;70.15;101241.34;4953838;28;20143;-72
2022/05/26 04:34:22;;;;;;;3.47;2.10;;;;;;;15.14;70.47;101233.09;4971983;28;20026;-71
2022/05/26 04:36:48;;;;;;;3.92;1.90;;;;;;;15.15;70.41;101230.28;4956034;28;20026;-70
2022/05/26 04:39:14;;;;;;;3.60;1.67;;;;;;;15.22;70.28;101242.00;4970806;28;20751;-71
2022/05/26 04:41:41;;;;;;;3.83;2.08;;;;;;;15.22;70.25;101230.50;4955234;28;20539;-71
2022/05/26 04:44:07;;;;;;;3.80;1.90;;;;;;;15.11;70.93;101235.06;4970719;28;20031;-72
2022/05/26 04:46:32;;;;;;;3.30;2.05;;;;;;;14.97;71.42;101238.28;4971457;28;20094;-72
2022/05/26 04:48:58;;;;;;;6.97;2.55;;;;;;;15.09;71.13;101241.56;4974419;28;19999;-72
2022/05/26 04:51:23;;;;;;;4.80;2.65;;;;;;;14.99;71.33;101236.34;4973503;28;20005;-71
2022/05/26 04:53:49;;;;;;;4.45;2.20;;;;;;;15.03;71.51;101243.03;4974842;28;20747;-71
2022/05/26 04:56:14;;;;;;;4.68;2.30;;;;;;;15.07;71.62;101239.06;4954208;28;20026;-71
2022/05/26 04:58:39;;;;;;;5.30;2.70;;;;;;;14.96;71.95;101243.78;4971059;28;20022;-71
2022/05/26 05:01:14;;;;;;;5.32;2.50;;;;;;;15.02;71.90;101245.84;4955306;28;20960;-72
2022/05/26 05:03:39;;;;;;;5.25;2.63;;;;;;;15.01;72.20;101250.31;4954016;28;20018;-72
2022/05/26 05:06:05;;;;;;;4.63;2.30;;;;;;;15.06;72.09;101245.38;4953243;28;20025;-72
2022/05/26 05:08:30;;;;;;;4.07;2.40;;;;;;;15.11;72.22;101253.72;4971722;28;20333;-72
2022/05/26 05:10:55;;;;;;;4.35;2.60;;;;;;;15.05;72.46;101257.03;4969624;28;20015;-72
2022/05/26 05:13:21;;;;;;;5.85;2.55;;;;;;;15.09;72.35;101257.56;4971960;28;20775;-73
2022/05/26 05:15:52;;;;;;;4.68;2.60;;;;;;;15.04;72.22;101260.69;4969667;28;20327;-73
2022/05/26 05:18:17;;;;;;;5.45;2.50;;;;;;;15.05;72.42;101259.69;4952297;28;20058;-74
2022/05/26 05:20:43;;;;;;;4.72;2.45;;;;;;;15.19;72.28;101262.81;4937213;28;20112;-72
2022/05/26 05:23:09;;;;;;;3.67;2.35;;;;;;;15.17;72.42;101270.13;4971488;28;20022;-72
2022/05/26 05:25:37;;;;;;;5.28;2.78;;;;;;;15.19;72.44;101271.63;4955413;28;20011;-72
2022/05/26 05:28:06;;;;;;;7.05;2.83;;;;;;;15.25;72.16;101267.53;4969558;28;20113;-73
2022/05/26 05:30:40;;;;;;;6.85;2.92;;;;;;;15.28;71.41;101275.22;4952981;28;20080;-72
2022/05/26 05:33:10;;;;;;;5.40;2.88;;;;;;;15.26;71.47;101283.34;4952948;28;20031;-72
2022/05/26 05:35:41;;;;;;;6.15;3.00;;;;;;;15.23;72.00;101288.16;4969860;28;20006;-72
2022/05/26 05:38:07;;;;;;;5.93;3.10;;;;;;;15.21;71.91;101288.31;4954825;28;20042;-73
2022/05/26 05:40:32;;;;;;;7.13;2.92;;;;;;;15.28;71.50;101288.53;4951941;28;20067;-72
2022/05/26 05:42:57;;;;;;;8.35;3.00;;;;;;;15.32;71.56;101297.91;4955914;28;20884;-72
2022/05/26 05:45:23;;;;;;;5.20;3.00;;;;;;;15.21;71.91;101298.97;4949769;28;20456;-72
2022/05/26 05:47:49;;;;;;;7.28;3.45;;;;;;;15.25;71.68;101294.19;4951604;28;20011;-72
2022/05/26 05:50:14;;;;;;;6.85;3.25;;;;;;;15.25;72.00;101310.19;4935391;28;20007;-73
2022/05/26 05:52:40;;;;;;;8.05;3.17;;;;;;;15.29;71.84;101298.22;4967159;28;20109;-72
2022/05/26 05:55:05;;;;;;;4.93;2.80;;;;;;;15.35;72.04;101302.91;4935714;28;20949;-73
2022/05/26 05:57:31;;;;;;;9.23;3.30;;;;;;;15.38;71.31;101305.28;4935623;28;20015;-73
2022/05/26 05:59:56;;;;;;;8.27;3.30;;;;;;;15.45;71.29;101311.69;4951105;28;20019;-73
2022/05/26 06:02:21;;;;;;;9.25;3.55;;;;;;;15.50;70.95;101315.69;4919016;28;21038;-72
2022/05/26 06:04:47;;;;;;;10.15;3.83;;;;;;;15.36;71.35;101304.59;4955066;28;20026;-73
2022/05/26 06:07:17;;;;;;;7.53;3.53;;;;;;;15.47;70.88;101314.19;4938517;28;20665;-73
2022/05/26 06:09:43;;;;;;;7.47;3.70;;;;;;;15.55;70.79;101316.06;4923053;28;20076;-72
2022/05/26 06:12:09;;;;;;;6.30;3.13;;;;;;;15.58;70.78;101321.09;4938152;28;20336;-73
2022/05/26 06:14:34;;;;;;;8.73;3.72;;;;;;;15.69;70.69;101320.84;4962862;28;20317;-73
2022/05/26 06:17:00;;;;;;;7.30;3.30;;;;;;;15.67;70.76;101320.19;4957595;28;20045;-72
2022/05/26 06:19:26;;;;;;;6.63;3.10;;;;;;;15.73;70.31;101332.88;4961155;28;20018;-72
2022/05/26 06:21:51;;;;;;;6.00;3.35;;;;;;;15.71;70.24;101342.88;4957547;28;20124;-72
2022/05/26 06:24:22;;;;;;;7.88;3.50;;;;;;;15.70;70.24;101341.19;4977929;28;20015;-72
2022/05/26 06:26:48;;;;;;;9.10;3.53;;;;;;;15.60;70.47;101337.81;4980276;28;20339;-73
2022/05/26 06:37:49;;;;;;;6.10;3.45;;;;;;;15.81;70.10;101353.50;4942461;28;20956;-73
2022/05/26 06:40:14;;;;;;;7.72;3.40;;;;;;;15.87;69.83;101368.03;4962030;28;20030;-73
2022/05/26 06:42:40;;;;;;;8.48;4.22;;;;;;;15.93;69.50;101362.94;4943623;28;20149;-73
2022/05/26 06:45:06;;;;;;;8.63;4.03;;;;;;;16.05;68.82;101358.16;4984747;28;20002;-73
2022/05/26 06:47:31;;;;;;;6.55;3.80;;;;;;;16.11;68.92;101360.19;4964849;28;20834;-74
2022/05/26 06:49:56;;;;;;;5.65;3.95;;;;;;;16.16;68.58;101364.22;4973306;28;20120;-74
2022/05/26 06:52:23;;;;;;;7.50;3.85;;;;;;;16.11;68.09;101367.38;4971838;28;20402;-73
2022/05/26 06:54:48;;;;;;;8.20;4.38;;;;;;;16.19;67.88;101366.56;4942482;28;20030;-73
2022/05/26 06:57:14;;;;;;;8.13;3.72;;;;;;;16.33;67.79;101371.31;4949099;28;20898;-73
2022/05/26 06:59:39;;;;;;;9.10;4.22;;;;;;;16.31;67.85;101365.28;4922968;28;20018;-72
2022/05/26 07:02:06;;;;;;;9.70;4.30;;;;;;;16.45;67.15;101377.22;4930971;28;20027;-73
2022/05/26 07:04:32;;;;;;;7.50;4.22;;;;;;;16.59;66.61;101367.75;4936707;28;20026;-72
2022/05/26 07:06:57;;;;;;;6.95;4.15;;;;;;;16.64;66.33;101381.50;4932757;28;20251;-73
2022/05/26 07:09:23;;;;;;;5.28;3.78;;;;;;;16.64;66.39;101374.28;4914336;28;20785;-73
2022/05/26 07:11:48;;;;;;;8.15;3.92;;;;;;;16.76;66.76;101369.47;4945853;28;20034;-72
2022/05/26 07:14:14;;;;;;;7.70;4.10;;;;;;;16.91;65.66;101387.63;4935414;28;20022;-74
2022/05/26 07:16:40;;;;;;;8.50;4.38;;;;;;;17.00;65.03;101381.28;4950189;28;20014;-74
2022/05/26 07:19:05;;;;;;;8.43;3.70;;;;;;;17.15;64.70;101389.50;4935024;28;20399;-72
2022/05/26 07:21:31;;;;;;;7.95;3.70;;;;;;;16.93;64.52;101381.09;4950598;28;21055;-72
2022/05/26 07:23:56;;;;;;;6.93;3.60;;;;;;;17.07;65.10;101393.00;4953321;28;20481;-71
2022/05/26 07:26:21;;;;;;;6.72;3.92;;;;;;;17.24;64.25;101398.38;4967396;28;20002;-72
2022/05/26 07:28:48;;;;;;;6.97;3.55;;;;;;;17.26;63.81;101388.34;4969754;28;20967;-72
2022/05/26 07:31:13;;;;;;;7.25;3.80;;;;;;;17.39;63.84;101401.25;4949327;28;20211;-72
2022/05/26 07:33:39;;;;;;;6.22;3.03;;;;;;;17.35;63.89;101400.75;4966806;28;20167;-72
2022/05/26 07:36:05;;;;;;;6.18;3.58;;;;;;;17.62;63.12;101404.94;4965535;28;20026;-73
2022/05/26 07:41:19;;;;;;;;;;;;;;;17.71;63.00;101399.56;4964436;28;21994;-73
2022/05/26 07:43:47;;;;;;;6.88;3.60;;;;;;;17.84;61.29;101406.09;4962278;28;20009;-72
2022/05/26 07:46:16;;;;;;;9.55;3.38;;;;;;;18.05;60.76;101395.91;4951561;28;20010;-73
2022/05/26 07:48:41;;;;;;;5.47;3.10;;;;;;;18.01;61.11;101398.09;4934866;28;20534;-74
2022/05/26 07:51:06;;;;;;;6.45;3.40;;;;;;;17.98;61.08;101403.78;4950368;28;20018;-74
2022/05/26 07:53:32;;;;;;;5.20;3.15;;;;;;;17.80;61.19;101403.94;4953293;28;20416;-72
2022/05/26 07:55:57;;;;;;;4.70;2.90;;;;;;;17.89;60.31;101413.63;4969254;28;20067;-74
2022/05/26 07:58:23;;;;;;;9.32;3.08;;;;;;;17.91;60.42;101418.84;4969797;28;20034;-73
2022/05/26 08:00:49;;;;;;;6.18;3.17;;;;;;;18.00;59.97;101409.81;4969551;28;20063;-73
2022/05/26 08:03:14;;;;;;;6.00;3.17;;;;;;;18.19;59.89;101422.00;4966394;28;20639;-73
2022/05/26 08:05:40;;;;;;;5.43;2.95;;;;;;;18.42;60.16;101416.75;4966539;28;20871;-73
2022/05/26 08:08:06;;;;;;;6.10;3.20;;;;;;;18.11;59.85;101419.34;4951361;28;20026;-74
2022/05/26 08:10:31;;;;;;;5.65;2.78;;;;;;;17.93;61.17;101415.00;4951935;28;20029;-73
2022/05/26 08:12:57;;;;;;;5.75;2.78;;;;;;;17.77;61.81;101426.53;4957831;28;20241;-74
2022/05/26 08:15:22;;;;;;;6.05;3.58;;;;;;;17.66;62.03;101434.88;4971270;28;20022;-74
2022/05/26 08:17:48;;;;;;;3.40;2.67;;;;;;;17.80;61.08;101426.19;4969448;28;20101;-73
2022/05/26 08:20:13;;;;;;;3.17;2.80;;;;;;;18.09;59.98;101434.72;4969447;28;20026;-74
2022/05/26 08:22:39;;;;;;;6.47;2.88;;;;;;;18.45;60.81;101424.44;4967092;28;20076;-73
2022/05/26 08:25:05;;;;;;;3.50;2.60;;;;;;;18.61;56.51;101438.78;4970111;28;20924;-73
2022/05/26 08:27:30;;;;;;;4.80;2.90;;;;;;;18.64;57.03;101444.66;4967098;28;20575;-73
2022/05/26 08:29:56;;;;;;;2.95;2.30;;;;;;;18.44;56.70;101440.69;4935651;28;20433;-73
2022/05/26 08:32:22;;;;;;;5.60;2.80;;;;;;;18.46;58.50;101442.19;4935525;28;20110;-73
2022/05/26 08:34:47;;;;;;;4.13;2.33;;;;;;;18.42;58.13;101440.03;4934853;28;20014;-73
2022/05/26 08:37:19;;;;;;;3.25;2.60;;;;;;;18.25;57.81;101456.13;4951358;28;20571;-73
2022/05/26 08:39:44;;;;;;;8.82;3.67;;;;;;;18.33;58.33;101458.81;4948611;28;20451;-74
2022/05/26 08:42:15;;;;;;;6.05;2.90;;;;;;;18.78;58.96;101461.88;4968525;28;20104;-72
2022/05/26 08:44:40;;;;;;;4.97;2.88;;;;;;;18.90;55.57;101442.75;4959516;28;20741;-73
2022/05/26 08:47:12;;;;;;;4.43;2.70;;;;;;;19.25;55.20;101451.25;4948601;28;20014;-73
2022/05/26 08:49:41;;;;;;;7.70;2.35;;;;;;;19.01;54.37;101451.22;4952743;28;20022;-72
2022/05/26 08:52:11;;;;;;;5.18;2.30;;;;;;;18.91;54.98;101455.97;4967479;28;20338;-73
2022/05/26 08:54:54;;;;;;;7.95;2.97;;;;;;;19.02;54.40;101463.63;4969605;28;20058;-72
2022/05/26 08:57:43;;;;;;;4.43;2.50;;;;;;;18.85;55.25;101467.34;4956939;28;20109;-72
2022/05/26 09:00:13;;;;;;;3.65;2.28;;;;;;;18.60;55.57;101477.31;4947818;28;20260;-72
2022/05/26 09:02:39;;;;;;;4.90;2.40;;;;;;;18.84;55.33;101482.63;4952805;28;20340;-72
2022/05/26 09:05:15;;;;;;;6.57;2.88;;;;;;;19.00;53.98;101470.19;4953299;28;20112;-72
2022/05/26 09:13:37;;;;;;;5.38;2.25;;;;;;;19.12;53.90;101467.94;4956903;28;20392;-72
2022/05/26 09:16:04;;;;;;;4.22;2.30;;;;;;;19.18;53.63;101489.53;4954531;28;20030;-73
2022/05/26 09:18:29;;;;;;;5.55;2.58;;;;;;;19.19;53.01;101488.53;4938682;28;20145;-73
2022/05/26 09:20:55;;;;;;;6.07;2.38;;;;;;;19.14;52.78;101490.06;4936340;28;20835;-72
2022/05/26 09:23:27;;;;;;;4.57;2.60;;;;;;;19.15;53.39;101492.59;4940456;28;20235;-73
2022/05/26 09:25:55;;;;;;;4.93;2.35;;;;;;;19.23;53.16;101494.38;4963409;28;20021;-73
2022/05/26 09:28:27;;;;;;;3.15;2.33;;;;;;;19.01;52.78;101498.69;4977369;28;20014;-73
2022/05/26 09:30:53;;;;;;;8.13;2.70;;;;;;;19.03;53.92;101504.69;4968312;28;20007;-72
2022/05/26 09:33:20;;;;;;;5.75;2.50;;;;;;;19.01;53.70;101498.69;4957318;28;20407;-72
2022/05/26 09:35:46;;;;;;;4.82;2.25;;;;;;;19.25;53.43;101511.16;4960445;28;20480;-73
2022/05/26 09:38:16;;;;;;;3.47;2.47;;;;;;;19.54;52.19;101507.81;4924062;28;20019;-75
2022/05/26 09:40:45;;;;;;;5.82;2.97;;;;;;;20.27;50.28;101506.59;4941364;28;20110;-73
2022/05/26 09:43:17;;;;;;;4.63;2.97;;;;;;;20.46;50.56;101508.78;4932808;28;20029;-73
2022/05/26 09:45:45;;;;;;;8.05;3.03;;;;;;;20.74;49.09;101505.47;4967055;28;20865;-73
2022/05/26 09:48:17;;;;;;;4.45;2.95;;;;;;;20.74;50.85;101494.69;4964499;28;20181;-73
2022/05/26 09:50:48;;;;;;;4.13;2.40;;;;;;;21.05;49.22;101507.13;4973061;28;20088;-73
2022/05/26 09:53:26;;;;;;;5.47;2.30;;;;;;;21.37;48.04;101500.47;4942469;28;20019;-73
2022/05/26 09:55:54;;;;;;;4.40;1.90;;;;;;;21.83;46.07;101512.78;4957397;28;20465;-72
2022/05/26 09:58:52;;;;;;;4.18;2.08;;;;;;;21.27;46.02;101522.28;4970590;28;19991;-73
2022/05/26 10:01:26;;;;;;;3.10;1.77;;;;;;;21.16;46.52;101519.25;4921517;28;20035;-73
2022/05/26 10:04:22;;;;;;;5.00;2.13;;;;;;;21.60;47.05;101521.88;4954441;28;20518;-73
2022/05/26 10:07:35;;;;;;;3.50;1.95;;;;;;;22.06;44.84;101509.06;4964612;28;20018;-73
2022/05/26 10:10:13;;;;;;;6.50;2.45;;;;;;;22.89;45.55;101511.91;4968922;28;20821;-73
2022/05/26 10:12:57;;;;;;;4.45;2.20;;;;;;;22.40;44.08;101521.78;4968415;28;20837;-74
2022/05/26 10:15:53;;;;;;;6.68;2.22;;;;;;;21.34;46.63;101510.78;4965723;28;20030;-73
2022/05/26 10:18:40;;;;;;;4.25;2.17;;;;;;;21.94;45.51;101523.03;4928800;28;21175;-73
2022/05/26 10:21:15;;;;;;;4.45;2.08;;;;;;;22.80;43.90;101521.19;4928691;28;20039;-73
2022/05/26 10:24:03;;;;;;;2.95;1.98;;;;;;;23.07;42.74;101510.53;4928651;28;20091;-73
2022/05/26 10:26:52;;;;;;;4.18;2.05;;;;;;;23.72;42.87;101510.13;4931417;28;20046;-72
2022/05/26 10:29:24;;;;;;;4.68;1.88;;;;;;;23.83;40.88;101512.22;4928050;28;20027;-73
2022/05/26 10:31:58;;;;;;;3.72;1.83;;;;;;;24.02;40.16;101513.31;4931499;28;20031;-73
2022/05/26 10:34:46;;;;;;;3.30;1.88;;;;;;;24.02;39.87;101523.31;4950044;28;20483;-73
2022/05/26 10:37:16;;;;;;;3.30;1.90;;;;;;;22.87;42.21;101522.09;4935732;28;20053;-73
2022/05/26 10:40:06;;;;;;;3.25;2.20;;;;;;;23.50;40.70;101500.31;4913645;28;20865;-73
2022/05/26 10:42:34;;;;;;;4.47;1.98;;;;;;;24.05;40.52;101504.78;4929514;28;20043;-73
2022/05/26 10:45:14;;;;;;;5.15;2.00;;;;;;;24.56;38.58;101510.56;4935254;28;20015;-73
2022/05/26 10:47:44;;;;;;;5.55;2.00;;;;;;;25.05;39.91;101505.66;4913062;28;20077;-74
2022/05/26 10:50:29;;;;;;;3.38;1.70;;;;;;;24.77;38.35;101499.50;4930731;28;20101;-73
2022/05/26 10:53:08;;;;;;;2.80;1.63;;;;;;;23.98;39.08;101512.06;4951863;28;20413;-73
2022/05/26 10:55:38;;;;;;;5.72;2.20;;;;;;;23.27;40.44;101516.88;4948420;28;20080;-73
2022/05/26 10:58:08;;;;;;;2.92;1.80;;;;;;;23.73;40.09;101526.16;4949646;28;20026;-72
2022/05/26 11:00:34;;;;;;;4.13;1.65;;;;;;;23.57;40.82;101515.72;4948291;28;20015;-73
2022/05/26 11:03:02;;;;;;;3.05;1.50;;;;;;;23.28;39.13;101518.56;4967261;28;20920;-72
2022/05/26 11:05:48;;;;;;;2.47;1.52;;;;;;;23.08;40.39;101518.44;4948849;28;20018;-72
2022/05/26 11:08:22;;;;;;;2.92;1.48;;;;;;;22.32;41.30;101526.47;4934066;28;20033;-72
2022/05/26 11:10:51;;;;;;;2.35;1.75;;;;;;;21.87;42.40;101515.91;4947659;28;20967;-73
2022/05/26 11:13:37;;;;;;;4.82;2.22;;;;;;;21.85;44.68;101518.81;4948849;28;20106;-73
2022/05/26 11:19:12;;;;;;;3.10;1.95;;;;;;;22.72;41.61;101524.09;4959805;28;20242;-73
2022/05/26 11:21:38;;;;;;;5.65;1.80;;;;;;;22.46;41.59;101533.63;4951715;28;20045;-73
2022/05/26 11:24:08;;;;;;;3.47;1.90;;;;;;;22.09;42.45;101519.44;4952931;28;20320;-72
2022/05/26 11:26:47;;;;;;;3.38;1.83;;;;;;;21.91;42.84;101518.06;4951721;28;20404;-73
2022/05/26 11:29:21;;;;;;;2.40;1.73;;;;;;;21.58;44.06;101513.16;4952858;28;20117;-73
2022/05/26 11:37:39;;;;;;;4.80;1.70;;;;;;;23.17;39.37;101529.94;4951552;28;20049;-73
2022/05/26 11:40:07;;;;;;;2.20;1.27;;;;;;;22.82;41.14;101521.84;4953290;28;20109;-72
2022/05/26 11:42:49;;;;;;;4.55;1.70;;;;;;;22.65;40.65;101534.81;4951185;28;20855;-73
2022/05/26 11:45:19;;;;;;;2.95;1.40;;;;;;;22.05;40.71;101529.75;4963700;28;20018;-73
2022/05/26 11:48:00;;;;;;;2.88;1.30;;;;;;;21.60;41.75;101538.03;4970003;28;20428;-72
2022/05/26 11:50:25;;;;;;;5.32;1.55;;;;;;;21.93;42.17;101524.06;4968207;28;20273;-73
2022/05/26 11:52:54;;;;;;;4.37;1.60;;;;;;;22.60;41.42;101521.94;4972468;28;20341;-73
2022/05/26 11:55:52;;;;;;;2.80;1.80;;;;;;;23.05;41.88;101524.22;4973047;28;20662;-73
2022/05/26 11:58:46;;;;;;;4.80;1.80;;;;;;;23.55;39.29;101523.19;4953654;28;20052;-73
2022/05/26 12:01:19;;;;;;;2.50;1.50;;;;;;;22.77;39.22;101529.69;4975174;28;20192;-73
2022/05/26 12:03:53;;;;;;;4.93;1.63;;;;;;;22.11;39.87;101530.84;4976923;28;20117;-73
2022/05/26 12:06:40;;;;;;;1.92;1.30;;;;;;;21.96;41.32;101525.53;4971796;28;20030;-73
2022/05/26 12:09:11;;;;;;;2.83;1.80;;;;;;;21.98;41.55;101525.34;4972605;28;20917;-73